Time;durP1;ratioP1;P1;durP2;ratioP2;P2;SDS_P1;SDS_P2;PMS_P1;PMS_P2;Temp;Humidity;BMP_temperature;BMP_pressure;BME280_temperature;BME280_humidity;BME280_pressure;Samples;Min_cycle;Max_cycle;Signal;HPM_P1;HPM_P2
2020/12/04 00:00:29;;;;;;;1.20;1.20;;;2.40;98.00;;;;;;5092698;28;20809;-63
2020/12/04 00:02:56;;;;;;;1.43;1.40;;;2.60;98.00;;;;;;5093548;28;20459;-63
2020/12/04 00:05:22;;;;;;;1.30;1.17;;;2.70;98.00;;;;;;5094711;28;20512;-63
2020/12/04 00:07:49;;;;;;;3.20;1.63;;;2.70;98.00;;;;;;5075304;28;20448;-63
2020/12/04 00:10:15;;;;;;;1.20;1.20;;;2.70;98.00;;;;;;5094663;28;20459;-63
2020/12/04 00:12:42;;;;;;;1.20;1.00;;;2.70;98.00;;;;;;5093482;28;20833;-63
2020/12/04 00:15:17;;;;;;;1.30;1.20;;;2.70;98.00;;;;;;5094483;28;20897;-63
2020/12/04 00:17:43;;;;;;;2.50;1.33;;;2.80;98.00;;;;;;5093305;28;20457;-63
2020/12/04 00:20:12;;;;;;;3.20;1.63;;;2.70;98.00;;;;;;5094552;28;20530;-62
2020/12/04 00:22:39;;;;;;;1.50;1.30;;;2.90;98.00;;;;;;5093090;28;20476;-63
2020/12/04 00:25:06;;;;;;;1.20;1.20;;;2.80;98.00;;;;;;5094527;28;20922;-63
2020/12/04 00:27:33;;;;;;;2.03;1.50;;;2.60;98.00;;;;;;5093422;28;20844;-63
2020/12/04 00:30:03;;;;;;;1.40;1.20;;;2.50;98.00;;;;;;5094283;28;20539;-62
2020/12/04 00:32:30;;;;;;;1.20;1.13;;;2.50;98.00;;;;;;5093192;28;20450;-63
2020/12/04 00:34:56;;;;;;;1.20;1.00;;;2.50;98.00;;;;;;5094476;28;20507;-63
2020/12/04 00:37:23;;;;;;;1.20;1.00;;;2.40;98.00;;;;;;5093037;28;20795;-63
2020/12/04 00:39:49;;;;;;;1.83;1.10;;;2.20;98.00;;;;;;5094177;28;20523;-63
2020/12/04 00:42:16;;;;;;;1.43;1.10;;;2.20;98.00;;;;;;5092934;28;20445;-62
2020/12/04 00:44:42;;;;;;;1.20;0.97;;;2.30;98.00;;;;;;5094157;28;20487;-62
2020/12/04 00:47:09;;;;;;;1.53;1.43;;;2.20;98.00;;;;;;5092987;28;20446;-63
2020/12/04 00:49:36;;;;;;;2.50;1.50;;;2.30;98.00;;;;;;5093980;28;20486;-63
2020/12/04 00:52:03;;;;;;;1.20;1.07;;;2.30;98.00;;;;;;5093481;28;20591;-63
2020/12/04 00:54:29;;;;;;;1.23;1.10;;;2.40;98.00;;;;;;5094807;28;20504;-63
2020/12/04 00:56:56;;;;;;;1.47;1.20;;;2.50;98.00;;;;;;5093265;28;20965;-63
2020/12/04 00:59:22;;;;;;;1.60;1.50;;;2.70;98.00;;;;;;5094555;28;20452;-63
2020/12/04 01:01:49;;;;;;;1.67;1.20;;;2.80;98.00;;;;;;5092650;28;20965;-62
2020/12/04 01:04:15;;;;;;;1.50;1.20;;;2.90;98.00;;;;;;5093632;28;20878;-62
2020/12/04 01:06:43;;;;;;;1.70;1.33;;;2.90;98.00;;;;;;5093527;28;20493;-63
2020/12/04 01:09:09;;;;;;;1.37;1.30;;;2.90;98.00;;;;;;5092439;28;20541;-63
2020/12/04 01:11:36;;;;;;;1.30;1.10;;;2.90;98.00;;;;;;5093434;28;20897;-63
2020/12/04 01:14:02;;;;;;;1.50;1.50;;;2.80;98.00;;;;;;5092179;28;20459;-63
2020/12/04 01:16:29;;;;;;;1.20;1.10;;;2.80;98.00;;;;;;5093625;28;20591;-63
2020/12/04 01:18:55;;;;;;;1.20;1.00;;;2.70;98.00;;;;;;5092195;28;20452;-62
2020/12/04 01:21:22;;;;;;;1.20;1.10;;;2.70;98.00;;;;;;5093355;28;20584;-63
2020/12/04 01:23:51;;;;;;;2.17;1.67;;;2.80;98.00;;;;;;5092097;28;20511;-63
2020/12/04 01:26:18;;;;;;;1.40;1.37;;;2.80;98.00;;;;;;5093228;28;20451;-63
2020/12/04 01:28:45;;;;;;;1.20;1.20;;;3.00;98.00;;;;;;5091865;28;20482;-62
2020/12/04 01:31:11;;;;;;;1.83;1.23;;;3.10;98.00;;;;;;5093222;28;20447;-63
2020/12/04 01:33:38;;;;;;;1.20;1.00;;;3.00;98.00;;;;;;5090551;28;20455;-63
2020/12/04 01:36:05;;;;;;;1.20;1.13;;;2.90;98.00;;;;;;5093061;28;20462;-63
2020/12/04 01:38:32;;;;;;;1.20;1.00;;;2.80;98.00;;;;;;5091715;28;20448;-63
2020/12/04 01:41:01;;;;;;;1.50;1.20;;;2.70;98.00;;;;;;5092992;28;20466;-63
2020/12/04 01:43:28;;;;;;;1.20;1.00;;;2.70;98.00;;;;;;5091908;28;20450;-62
2020/12/04 01:46:02;;;;;;;1.20;1.10;;;2.70;98.00;;;;;;5092861;28;20451;-63
2020/12/04 01:48:28;;;;;;;1.70;1.30;;;2.70;98.00;;;;;;5091859;28;20607;-63
2020/12/04 01:50:55;;;;;;;1.20;1.10;;;2.70;98.00;;;;;;5092791;28;20505;-63
2020/12/04 01:53:23;;;;;;;1.20;1.00;;;2.70;98.00;;;;;;5091620;28;20942;-63
2020/12/04 01:55:51;;;;;;;1.77;1.50;;;2.80;98.00;;;;;;5092748;28;20953;-63
2020/12/04 01:58:18;;;;;;;4.63;1.57;;;3.00;98.00;;;;;;5091076;28;20916;-63
2020/12/04 02:00:45;;;;;;;2.60;2.33;;;3.00;98.00;;;;;;5092719;28;20471;-63
2020/12/04 02:03:13;;;;;;;1.70;1.60;;;3.00;98.00;;;;;;5091601;28;20614;-63
2020/12/04 02:05:47;;;;;;;1.20;1.03;;;3.00;98.00;;;;;;5092703;28;20541;-62
2020/12/04 02:08:23;;;;;;;1.43;1.37;;;3.00;98.00;;;;;;5091132;28;20995;-62
2020/12/04 02:10:59;;;;;;;1.70;1.40;;;2.90;98.00;;;;;;5092699;28;20450;-62
2020/12/04 02:13:29;;;;;;;1.90;1.73;;;2.90;98.00;;;;;;5091233;28;20450;-62
2020/12/04 02:15:57;;;;;;;1.20;1.00;;;2.90;98.00;;;;;;5092339;28;20462;-63
2020/12/04 02:18:23;;;;;;;1.20;1.00;;;2.80;98.00;;;;;;5089745;28;20455;-62
2020/12/04 02:20:59;;;;;;;1.50;1.23;;;2.80;98.00;;;;;;5092091;28;20455;-63
2020/12/04 02:23:27;;;;;;;2.10;1.93;;;2.90;98.00;;;;;;5089073;28;20873;-63
2020/12/04 02:25:56;;;;;;;1.30;1.20;;;2.80;98.00;;;;;;5091980;28;20454;-63
2020/12/04 02:28:33;;;;;;;1.20;1.00;;;2.70;98.00;;;;;;5090864;28;20514;-63
2020/12/04 02:31:00;;;;;;;1.43;1.40;;;2.70;98.00;;;;;;5091992;28;20489;-63
2020/12/04 02:33:27;;;;;;;1.40;1.37;;;2.80;98.00;;;;;;5090694;28;20536;-63
2020/12/04 02:35:54;;;;;;;1.20;1.10;;;2.80;98.00;;;;;;5091721;28;20462;-63
2020/12/04 02:38:22;;;;;;;1.30;1.27;;;2.80;98.00;;;;;;5090569;28;20867;-63
2020/12/04 02:40:48;;;;;;;1.33;1.27;;;2.70;98.00;;;;;;5091851;28;20865;-63
2020/12/04 02:43:15;;;;;;;2.93;1.37;;;2.70;98.00;;;;;;5090310;28;20957;-62
2020/12/04 02:45:49;;;;;;;1.63;1.63;;;2.60;98.00;;;;;;5091688;28;20544;-63
2020/12/04 02:48:17;;;;;;;1.40;1.20;;;2.50;98.00;;;;;;5090178;28;20533;-63
2020/12/04 02:50:44;;;;;;;1.20;1.03;;;2.60;98.00;;;;;;5091754;28;20451;-63
2020/12/04 02:53:10;;;;;;;1.17;1.00;;;2.70;98.00;;;;;;5090271;28;20979;-63
2020/12/04 02:55:38;;;;;;;1.77;1.20;;;2.80;98.00;;;;;;5091490;28;20448;-64
2020/12/04 02:58:04;;;;;;;1.50;1.40;;;3.00;98.00;;;;;;5089962;28;20458;-63
2020/12/04 03:00:31;;;;;;;1.20;1.00;;;3.10;98.00;;;;;;5091395;28;20509;-63
2020/12/04 03:02:58;;;;;;;2.80;1.30;;;2.90;98.00;;;;;;5091471;28;20446;-63
2020/12/04 03:05:25;;;;;;;1.93;1.50;;;2.80;98.00;;;;;;5089836;28;20455;-63
2020/12/04 03:07:51;;;;;;;1.60;1.30;;;2.90;98.00;;;;;;5091189;28;20945;-62
2020/12/04 03:10:18;;;;;;;1.30;1.30;;;2.90;98.00;;;;;;5090133;28;21015;-62
2020/12/04 03:12:45;;;;;;;1.53;1.30;;;2.80;98.00;;;;;;5091100;28;20512;-63
2020/12/04 03:15:12;;;;;;;1.30;1.20;;;2.80;98.00;;;;;;5089414;28;20947;-63
2020/12/04 03:17:38;;;;;;;1.17;0.90;;;2.70;98.00;;;;;;5090032;28;20510;-63
2020/12/04 03:20:05;;;;;;;1.20;1.00;;;2.60;98.00;;;;;;5089588;28;20932;-62
2020/12/04 03:22:32;;;;;;;1.57;1.33;;;2.60;98.00;;;;;;5091076;28;20451;-62
2020/12/04 03:24:58;;;;;;;1.20;1.00;;;2.70;98.00;;;;;;5089728;28;20873;-62
2020/12/04 03:27:25;;;;;;;1.20;1.00;;;2.60;98.00;;;;;;5091240;28;20862;-62
2020/12/04 03:29:52;;;;;;;1.80;1.10;;;2.70;98.00;;;;;;5089727;28;20486;-63
2020/12/04 03:32:19;;;;;;;2.83;1.90;;;2.70;98.00;;;;;;5090991;28;20463;-62
2020/12/04 03:34:45;;;;;;;1.20;1.10;;;2.60;98.00;;;;;;5088725;28;20933;-62
2020/12/04 03:37:12;;;;;;;1.20;1.00;;;2.60;98.00;;;;;;5090910;28;20504;-62
2020/12/04 03:39:38;;;;;;;1.20;1.20;;;2.70;98.00;;;;;;5089876;28;20455;-62
2020/12/04 03:42:05;;;;;;;1.70;1.30;;;2.80;98.00;;;;;;5091125;28;20455;-64
2020/12/04 03:44:32;;;;;;;1.13;0.90;;;2.70;98.00;;;;;;5089935;28;20934;-62
2020/12/04 03:46:59;;;;;;;1.33;1.20;;;3.00;98.00;;;;;;5090893;28;20451;-62
2020/12/04 03:49:26;;;;;;;1.20;1.00;;;3.10;98.00;;;;;;5089447;28;20523;-62
2020/12/04 03:51:53;;;;;;;1.20;1.00;;;3.10;98.00;;;;;;5090868;28;20455;-62
2020/12/04 03:54:19;;;;;;;2.03;1.47;;;2.90;98.00;;;;;;5089152;28;20524;-64
2020/12/04 03:56:46;;;;;;;1.93;1.70;;;2.90;98.00;;;;;;5090620;28;20467;-63
2020/12/04 03:59:12;;;;;;;1.20;1.10;;;2.90;98.00;;;;;;5089670;28;20451;-62
2020/12/04 04:01:41;;;;;;;1.20;1.10;;;3.00;98.00;;;;;;5090818;28;20460;-62
2020/12/04 04:04:08;;;;;;;1.20;1.00;;;3.00;98.00;;;;;;5089626;28;20583;-62
2020/12/04 04:06:35;;;;;;;1.57;1.40;;;3.10;98.00;;;;;;5090925;28;20459;-62
2020/12/04 04:09:01;;;;;;;1.20;1.10;;;3.10;98.00;;;;;;5089673;28;20537;-62
2020/12/04 04:11:29;;;;;;;1.40;1.33;;;3.20;98.00;;;;;;5091299;28;21012;-62
2020/12/04 04:13:55;;;;;;;5.03;1.43;;;3.10;98.00;;;;;;5089611;28;20741;-62
2020/12/04 04:16:22;;;;;;;1.20;1.07;;;3.00;98.00;;;;;;5090706;28;20501;-63
2020/12/04 04:18:48;;;;;;;1.20;1.00;;;3.20;98.00;;;;;;5090570;28;20485;-62
2020/12/04 04:21:15;;;;;;;1.20;0.90;;;3.40;98.00;;;;;;5089497;28;20463;-62
2020/12/04 04:23:42;;;;;;;1.20;1.00;;;3.50;98.00;;;;;;5090458;28;20508;-63
2020/12/04 04:26:09;;;;;;;1.20;1.00;;;3.40;98.00;;;;;;5089270;28;20454;-62
2020/12/04 04:28:36;;;;;;;2.93;1.30;;;3.30;98.00;;;;;;5090298;28;20989;-62
2020/12/04 04:31:04;;;;;;;1.40;1.30;;;3.30;98.00;;;;;;5089352;28;20481;-62
2020/12/04 04:33:30;;;;;;;1.20;1.10;;;3.30;98.00;;;;;;5090000;28;20444;-63
2020/12/04 04:35:56;;;;;;;3.30;1.53;;;3.20;98.00;;;;;;5089167;28;20500;-62
2020/12/04 04:38:24;;;;;;;1.20;1.00;;;3.00;98.00;;;;;;5090508;28;20512;-62
2020/12/04 04:40:56;;;;;;;1.10;0.97;;;2.90;98.00;;;;;;5089197;28;20953;-62
2020/12/04 04:43:24;;;;;;;2.33;2.10;;;2.90;98.00;;;;;;5090337;28;20456;-63
2020/12/04 04:45:50;;;;;;;1.20;1.10;;;2.80;98.00;;;;;;5089948;28;20949;-62
2020/12/04 04:48:23;;;;;;;1.20;1.00;;;2.80;98.00;;;;;;5093759;28;20520;-62
2020/12/04 04:50:52;;;;;;;1.30;1.23;;;2.90;98.00;;;;;;5092530;28;20450;-63
2020/12/04 04:53:20;;;;;;;1.67;1.57;;;2.80;98.00;;;;;;5093934;28;20507;-62
2020/12/04 04:55:47;;;;;;;1.20;1.13;;;2.70;98.00;;;;;;5092676;28;20454;-62
2020/12/04 04:58:14;;;;;;;1.37;1.33;;;2.60;98.00;;;;;;5093629;28;20462;-62
2020/12/04 05:00:41;;;;;;;1.20;1.20;;;2.60;98.00;;;;;;5092440;28;20451;-62
2020/12/04 05:03:08;;;;;;;2.50;1.40;;;2.70;98.00;;;;;;5093727;28;20565;-63
2020/12/04 05:05:45;;;;;;;1.20;1.10;;;2.70;98.00;;;;;;5092399;28;20451;-62
2020/12/04 05:08:15;;;;;;;1.20;1.10;;;2.60;98.00;;;;;;5093745;28;20836;-62
2020/12/04 05:10:42;;;;;;;1.20;1.10;;;2.60;98.00;;;;;;5092429;28;20447;-62
2020/12/04 05:13:10;;;;;;;1.20;1.10;;;2.70;98.00;;;;;;5093736;28;20488;-62
2020/12/04 05:15:37;;;;;;;1.20;1.00;;;2.90;98.00;;;;;;5092227;28;20520;-62
2020/12/04 05:18:09;;;;;;;1.30;1.30;;;2.90;98.00;;;;;;5093266;28;20501;-63
2020/12/04 05:20:36;;;;;;;1.20;1.20;;;2.80;98.00;;;;;;5090856;28;20448;-63
2020/12/04 05:23:03;;;;;;;1.50;1.30;;;2.90;98.00;;;;;;5093155;28;20539;-62
2020/12/04 05:25:35;;;;;;;1.60;1.13;;;2.80;98.00;;;;;;5092038;28;20467;-62
2020/12/04 05:28:10;;;;;;;1.20;0.97;;;2.70;98.00;;;;;;5093022;28;20486;-63
2020/12/04 05:30:37;;;;;;;1.83;1.57;;;2.60;98.00;;;;;;5091789;28;20540;-62
2020/12/04 05:33:05;;;;;;;1.40;1.30;;;2.70;98.00;;;;;;5093062;28;20459;-63
2020/12/04 05:35:32;;;;;;;1.20;1.00;;;2.70;98.00;;;;;;5091770;28;20454;-62
2020/12/04 05:38:09;;;;;;;2.07;1.77;;;2.70;98.00;;;;;;5092888;28;20467;-63
2020/12/04 05:40:37;;;;;;;1.13;0.97;;;2.70;98.00;;;;;;5091687;28;20496;-62
2020/12/04 05:43:04;;;;;;;1.20;1.00;;;2.80;98.00;;;;;;5092844;28;20447;-62
2020/12/04 05:45:32;;;;;;;1.83;1.23;;;3.00;98.00;;;;;;5091657;28;20846;-62
2020/12/04 05:47:59;;;;;;;1.63;1.27;;;3.00;98.00;;;;;;5092636;28;20512;-64
2020/12/04 05:50:26;;;;;;;3.30;1.30;;;3.20;98.00;;;;;;5091521;28;20540;-63
2020/12/04 05:52:52;;;;;;;1.20;1.07;;;3.20;98.00;;;;;;5092614;28;20447;-63
2020/12/04 05:55:19;;;;;;;1.30;1.07;;;3.10;98.00;;;;;;5092069;28;20607;-64
2020/12/04 05:57:50;;;;;;;1.87;1.17;;;3.10;98.00;;;;;;5091493;28;20520;-63
2020/12/04 06:00:17;;;;;;;2.03;1.33;;;3.00;98.00;;;;;;5092735;28;20481;-62
2020/12/04 06:02:46;;;;;;;1.20;1.00;;;3.00;98.00;;;;;;5091350;28;21004;-62
2020/12/04 06:05:14;;;;;;;1.20;1.00;;;3.00;98.00;;;;;;5092583;28;20456;-63
2020/12/04 06:07:41;;;;;;;1.50;1.43;;;2.90;98.00;;;;;;5091299;28;20961;-62
2020/12/04 06:10:09;;;;;;;1.30;1.30;;;2.90;98.00;;;;;;5091207;28;20487;-63
2020/12/04 06:12:35;;;;;;;4.40;2.67;;;2.90;98.00;;;;;;5091166;28;20451;-63
2020/12/04 06:15:30;;;;;;;1.57;1.50;;;2.90;98.00;;;;;;5092389;28;20954;-63
2020/12/04 06:18:03;;;;;;;2.53;1.40;;;3.00;98.00;;;;;;5055108;28;20456;-62
2020/12/04 06:20:39;;;;;;;1.37;1.20;;;3.00;98.00;;;;;;5092428;28;20458;-63
2020/12/04 06:23:11;;;;;;;1.30;1.20;;;3.00;98.00;;;;;;5092228;28;20456;-62
2020/12/04 06:26:00;;;;;;;1.23;1.10;;;3.00;98.00;;;;;;5092268;28;20513;-63
2020/12/04 06:28:31;;;;;;;1.17;1.00;;;2.90;98.00;;;;;;5092138;28;21016;-65
2020/12/04 06:31:16;;;;;;;1.20;1.00;;;2.90;98.00;;;;;;5091076;28;20459;-62
2020/12/04 06:33:45;;;;;;;1.20;1.10;;;3.00;98.00;;;;;;5092284;28;20448;-62
2020/12/04 06:36:33;;;;;;;1.20;1.10;;;3.10;98.00;;;;;;5091179;28;20463;-63
2020/12/04 06:39:00;;;;;;;1.87;1.07;;;3.30;98.00;;;;;;5093412;28;20454;-62
2020/12/04 06:41:29;;;;;;;1.20;1.00;;;3.10;98.00;;;;;;5091791;28;20821;-62
2020/12/04 06:44:00;;;;;;;1.20;0.90;;;3.00;98.00;;;;;;5092654;28;20448;-64
2020/12/04 06:46:36;;;;;;;1.90;1.40;;;3.00;98.00;;;;;;5091718;28;20507;-62
2020/12/04 06:49:12;;;;;;;1.70;1.70;;;3.20;98.00;;;;;;5091746;28;20537;-62
2020/12/04 06:51:40;;;;;;;1.20;1.00;;;3.30;98.00;;;;;;5090660;28;20455;-63
2020/12/04 06:54:07;;;;;;;1.20;0.90;;;3.10;98.00;;;;;;5091888;28;20455;-62
2020/12/04 06:56:34;;;;;;;1.40;1.30;;;3.00;98.00;;;;;;5090289;28;20587;-63
2020/12/04 06:59:01;;;;;;;1.50;1.40;;;2.90;98.00;;;;;;5091443;28;20520;-62
2020/12/04 07:01:27;;;;;;;1.20;1.00;;;2.80;98.00;;;;;;5090351;28;20460;-62
2020/12/04 07:03:57;;;;;;;1.20;1.03;;;2.90;98.00;;;;;;5091670;28;20448;-62
2020/12/04 07:06:25;;;;;;;1.20;0.90;;;2.90;98.00;;;;;;5090321;28;20860;-63
2020/12/04 07:08:56;;;;;;;1.20;1.20;;;2.90;98.00;;;;;;5091227;28;20476;-63
2020/12/04 07:11:24;;;;;;;2.70;1.93;;;2.80;98.00;;;;;;5090132;28;20518;-62
2020/12/04 07:13:51;;;;;;;1.40;1.30;;;3.00;98.00;;;;;;5091355;28;20488;-62
2020/12/04 07:16:18;;;;;;;1.40;1.10;;;3.10;98.00;;;;;;5090578;28;20444;-63
2020/12/04 07:18:49;;;;;;;2.33;1.40;;;3.10;98.00;;;;;;5091235;28;20938;-62
2020/12/04 07:21:16;;;;;;;1.60;1.20;;;3.10;98.00;;;;;;5091296;28;20542;-62
2020/12/04 07:23:44;;;;;;;1.20;0.97;;;3.00;98.00;;;;;;5090220;28;20480;-63
2020/12/04 07:26:14;;;;;;;1.30;1.23;;;2.90;98.00;;;;;;5091220;28;20444;-62
2020/12/04 07:28:42;;;;;;;1.20;1.10;;;2.90;98.00;;;;;;5089962;28;20447;-62
2020/12/04 07:31:15;;;;;;;1.20;1.00;;;2.90;98.00;;;;;;5091286;28;20452;-62
2020/12/04 07:33:53;;;;;;;1.60;1.30;;;2.90;98.00;;;;;;5089722;28;20472;-62
2020/12/04 07:36:19;;;;;;;1.30;1.20;;;3.00;98.00;;;;;;5090985;28;20829;-63
2020/12/04 07:38:58;;;;;;;1.43;1.20;;;3.10;98.00;;;;;;5089455;28;20949;-61
2020/12/04 07:41:29;;;;;;;1.40;1.20;;;3.00;98.00;;;;;;5090865;28;20450;-62
2020/12/04 07:44:05;;;;;;;1.73;1.40;;;3.00;98.00;;;;;;5089355;28;20520;-62
2020/12/04 07:46:32;;;;;;;1.83;1.23;;;2.90;98.00;;;;;;5089488;28;20537;-62
2020/12/04 07:49:03;;;;;;;2.00;1.13;;;2.80;98.00;;;;;;5090672;28;20535;-62
2020/12/04 07:51:31;;;;;;;1.50;1.40;;;2.70;98.00;;;;;;5090753;28;20479;-62
2020/12/04 07:53:59;;;;;;;1.20;1.10;;;2.90;98.00;;;;;;5089519;28;20460;-62
2020/12/04 07:56:27;;;;;;;1.20;1.00;;;3.00;98.00;;;;;;5090729;28;20452;-62
2020/12/04 07:58:59;;;;;;;1.23;1.10;;;3.10;98.00;;;;;;5089049;28;20464;-63
2020/12/04 08:01:27;;;;;;;2.07;1.93;;;3.20;98.00;;;;;;5090791;28;20451;-62
2020/12/04 08:03:55;;;;;;;1.20;1.10;;;3.10;98.00;;;;;;5089294;28;20448;-62
2020/12/04 08:06:26;;;;;;;2.10;1.37;;;3.20;98.00;;;;;;5090888;28;20482;-62
2020/12/04 08:09:12;;;;;;;1.20;1.00;;;3.20;98.00;;;;;;5089477;28;20452;-61
2020/12/04 08:11:55;;;;;;;2.87;1.73;;;3.40;98.00;;;;;;5090715;28;20448;-61
2020/12/04 08:14:26;;;;;;;3.30;1.87;;;3.40;98.00;;;;;;5088025;28;20542;-63
2020/12/04 08:16:56;;;;;;;2.07;1.50;;;3.30;98.00;;;;;;5090492;28;20525;-61
2020/12/04 08:19:24;;;;;;;1.77;1.33;;;3.40;98.00;;;;;;5089869;28;20508;-63
2020/12/04 08:21:58;;;;;;;1.40;1.10;;;3.60;98.00;;;;;;5093166;28;20447;-62
2020/12/04 08:24:28;;;;;;;1.50;1.33;;;3.50;98.00;;;;;;5093702;28;20451;-62
2020/12/04 08:27:03;;;;;;;1.50;1.20;;;3.50;98.00;;;;;;5094479;28;20456;-62
2020/12/04 08:29:29;;;;;;;1.20;1.00;;;3.40;98.00;;;;;;5093557;28;20555;-63
2020/12/04 08:32:11;;;;;;;1.60;1.10;;;3.60;98.00;;;;;;5094250;28;20520;-62
2020/12/04 08:34:38;;;;;;;1.20;1.00;;;3.60;98.00;;;;;;5094104;28;20456;-63
2020/12/04 08:37:07;;;;;;;2.13;1.33;;;3.70;98.00;;;;;;5094088;28;20455;-61
2020/12/04 08:39:50;;;;;;;1.47;1.10;;;3.90;98.00;;;;;;5091582;28;20528;-62
2020/12/04 08:42:33;;;;;;;1.20;1.00;;;4.00;98.00;;;;;;5091919;28;20455;-63
2020/12/04 08:45:04;;;;;;;3.97;1.33;;;3.80;98.00;;;;;;5093141;28;20447;-63
2020/12/04 08:47:35;;;;;;;1.83;1.73;;;3.70;98.00;;;;;;5092152;28;20504;-62
2020/12/04 08:50:14;;;;;;;1.20;1.00;;;3.80;98.00;;;;;;5092351;28;20487;-62
2020/12/04 08:52:45;;;;;;;1.33;1.23;;;3.90;98.00;;;;;;5092125;28;20540;-62
2020/12/04 08:55:14;;;;;;;1.20;1.10;;;3.90;98.00;;;;;;5093519;28;20458;-62
2020/12/04 08:57:42;;;;;;;1.83;1.47;;;3.90;98.00;;;;;;5091636;28;21002;-61
2020/12/04 09:00:11;;;;;;;1.40;1.33;;;4.00;98.00;;;;;;5093036;28;20448;-61
2020/12/04 09:02:38;;;;;;;1.47;1.43;;;4.00;98.00;;;;;;5092071;28;20452;-62
2020/12/04 09:05:07;;;;;;;1.20;1.00;;;3.90;98.00;;;;;;5093078;28;20531;-62
2020/12/04 09:07:34;;;;;;;1.17;1.10;;;4.70;98.00;;;;;;5093092;28;20649;-61
2020/12/04 09:10:00;;;;;;;1.20;1.10;;;6.30;98.00;;;;;;5091791;28;20484;-63
2020/12/04 09:12:28;;;;;;;1.20;1.00;;;6.70;98.00;;;;;;5092931;28;20503;-64
2020/12/04 09:14:54;;;;;;;1.20;1.10;;;6.90;98.00;;;;;;5091825;28;20521;-60
2020/12/04 09:17:21;;;;;;;1.20;1.00;;;6.60;98.00;;;;;;5093264;28;20456;-62
2020/12/04 09:19:47;;;;;;;1.50;1.47;;;6.30;98.00;;;;;;5091160;28;20456;-62
2020/12/04 09:22:15;;;;;;;1.20;1.00;;;5.90;98.00;;;;;;5093396;28;20452;-62
2020/12/04 09:24:43;;;;;;;1.20;1.00;;;5.60;98.00;;;;;;5091729;28;20458;-62
2020/12/04 09:27:10;;;;;;;1.30;1.20;;;5.50;98.00;;;;;;5093385;28;20452;-62
2020/12/04 09:29:38;;;;;;;1.20;1.20;;;5.60;98.00;;;;;;5092159;28;20541;-61
2020/12/04 09:32:09;;;;;;;1.30;1.20;;;5.50;98.00;;;;;;5093357;28;20453;-61
2020/12/04 09:34:36;;;;;;;1.43;1.40;;;5.50;98.00;;;;;;5092218;28;20463;-61
2020/12/04 09:37:19;;;;;;;2.63;1.93;;;5.40;98.00;;;;;;5093301;28;20475;-62
2020/12/04 09:39:47;;;;;;;1.20;1.00;;;5.40;98.00;;;;;;5092088;28;20506;-62
2020/12/04 09:42:16;;;;;;;1.20;1.00;;;5.40;98.00;;;;;;5093452;28;20487;-61
2020/12/04 09:44:44;;;;;;;1.20;1.10;;;5.40;98.00;;;;;;5091986;28;20454;-61
2020/12/04 09:47:11;;;;;;;1.60;1.50;;;5.50;98.00;;;;;;5093161;28;20673;-62
2020/12/04 09:49:38;;;;;;;1.20;1.07;;;5.60;98.00;;;;;;5090466;28;20488;-62
2020/12/04 09:52:05;;;;;;;2.50;1.40;;;5.70;98.00;;;;;;5092954;28;20444;-62
2020/12/04 09:54:35;;;;;;;1.90;1.20;;;5.70;98.00;;;;;;5091748;28;20460;-62
2020/12/04 09:57:03;;;;;;;1.63;1.30;;;5.50;98.00;;;;;;5092609;28;20478;-63
2020/12/04 09:59:29;;;;;;;1.30;1.13;;;5.50;98.00;;;;;;5091659;28;20452;-62
2020/12/04 10:01:57;;;;;;;1.20;1.07;;;5.70;98.00;;;;;;5092675;28;20492;-62
2020/12/04 10:04:24;;;;;;;1.20;0.90;;;5.80;98.00;;;;;;5091235;28;20463;-62
2020/12/04 10:06:55;;;;;;;1.20;1.10;;;5.70;98.00;;;;;;5092561;28;20448;-62
2020/12/04 10:09:22;;;;;;;1.30;1.30;;;5.60;98.00;;;;;;5091134;28;20578;-62
2020/12/04 10:11:49;;;;;;;1.30;1.20;;;5.60;98.00;;;;;;5092343;28;20804;-62
2020/12/04 10:14:16;;;;;;;2.07;1.77;;;5.60;98.00;;;;;;5090940;28;20452;-62
2020/12/04 10:16:43;;;;;;;1.30;1.13;;;5.60;98.00;;;;;;5092769;28;20456;-62
2020/12/04 10:19:12;;;;;;;1.30;1.20;;;5.60;98.00;;;;;;5091041;28;20456;-64
2020/12/04 10:21:39;;;;;;;1.30;1.10;;;5.90;98.00;;;;;;5092938;28;20794;-62
2020/12/04 10:24:07;;;;;;;1.20;1.07;;;5.80;98.00;;;;;;5091193;28;21064;-62
2020/12/04 10:26:41;;;;;;;1.60;1.27;;;5.70;98.00;;;;;;5090965;28;20475;-63
2020/12/04 10:29:08;;;;;;;1.83;1.57;;;5.80;98.00;;;;;;5090388;28;20457;-63
2020/12/04 10:31:36;;;;;;;1.50;1.20;;;5.70;98.00;;;;;;5091964;28;20457;-61
2020/12/04 10:34:02;;;;;;;1.83;1.53;;;5.80;98.00;;;;;;5090022;28;20968;-63
2020/12/04 10:36:30;;;;;;;1.63;1.60;;;5.90;98.00;;;;;;5091936;28;20453;-62
2020/12/04 10:38:57;;;;;;;1.80;1.40;;;5.80;98.00;;;;;;5090194;28;20451;-62
2020/12/04 10:41:24;;;;;;;2.33;1.20;;;5.70;98.00;;;;;;5091540;28;20456;-61
2020/12/04 10:44:00;;;;;;;1.60;1.23;;;5.50;98.00;;;;;;5089585;28;20457;-62
2020/12/04 10:46:27;;;;;;;1.30;1.10;;;5.40;98.00;;;;;;5091920;28;20456;-62
2020/12/04 10:48:54;;;;;;;1.40;1.20;;;5.30;98.00;;;;;;5080588;28;20462;-62
2020/12/04 10:51:21;;;;;;;1.90;1.90;;;5.30;98.00;;;;;;5070250;28;20488;-61
2020/12/04 10:53:49;;;;;;;1.80;1.60;;;5.20;98.00;;;;;;5069806;28;21016;-62
2020/12/04 10:56:18;;;;;;;1.30;1.30;;;5.20;98.00;;;;;;5068771;28;20462;-62
2020/12/04 10:58:44;;;;;;;1.23;1.13;;;5.20;98.00;;;;;;5070584;28;20457;-62
2020/12/04 11:01:12;;;;;;;1.20;1.20;;;5.30;98.00;;;;;;5068919;28;20460;-61
2020/12/04 11:05:26;;;;;;;1.73;1.63;;;5.40;98.00;;;;;;5070507;28;20461;-62
2020/12/04 11:06:27;;;;;;;2.10;1.33;;;5.50;98.00;;;;;;5070450;28;20452;-62
2020/12/04 11:08:55;;;;;;;1.30;1.30;;;5.30;98.00;;;;;;5070477;28;20460;-62
2020/12/04 11:11:27;;;;;;;1.60;1.50;;;5.30;98.00;;;;;;5068932;28;20485;-62
2020/12/04 11:13:54;;;;;;;1.30;1.10;;;5.20;98.00;;;;;;5070461;28;21026;-61
2020/12/04 11:16:21;;;;;;;1.70;1.40;;;5.30;98.00;;;;;;5069472;28;20455;-62
2020/12/04 11:18:47;;;;;;;1.40;1.20;;;5.50;98.00;;;;;;5070222;28;20453;-62
2020/12/04 11:21:14;;;;;;;2.77;1.80;;;5.70;98.00;;;;;;5069383;28;20503;-63
2020/12/04 11:23:41;;;;;;;2.07;1.87;;;5.90;98.00;;;;;;5070026;28;20450;-62
2020/12/04 11:26:08;;;;;;;1.30;1.30;;;5.90;98.00;;;;;;5068065;28;20484;-63
2020/12/04 11:28:35;;;;;;;1.30;1.20;;;5.70;98.00;;;;;;5070419;28;20937;-62
2020/12/04 11:31:02;;;;;;;3.20;1.93;;;5.60;98.00;;;;;;5069102;28;20488;-63
2020/12/04 11:33:29;;;;;;;1.40;1.40;;;5.70;98.00;;;;;;5070390;28;20873;-62
2020/12/04 11:35:55;;;;;;;2.00;1.60;;;5.80;98.00;;;;;;5069142;28;20453;-62
2020/12/04 11:38:22;;;;;;;2.07;1.30;;;5.60;98.00;;;;;;5070354;28;20449;-62
2020/12/04 11:40:49;;;;;;;1.40;1.20;;;5.40;98.00;;;;;;5069256;28;21021;-62
2020/12/04 11:43:16;;;;;;;1.30;1.17;;;5.30;98.00;;;;;;5070373;28;20518;-62
2020/12/04 11:45:43;;;;;;;1.30;1.20;;;5.50;98.00;;;;;;5069167;28;20506;-62
2020/12/04 11:48:09;;;;;;;2.50;1.40;;;5.50;98.00;;;;;;5070504;28;20452;-62
2020/12/04 11:50:36;;;;;;;2.27;1.43;;;5.40;98.00;;;;;;5069117;28;20542;-63
2020/12/04 11:53:03;;;;;;;3.37;1.73;;;5.40;98.00;;;;;;5070121;28;20497;-62
2020/12/04 11:55:30;;;;;;;2.20;2.07;;;5.40;98.00;;;;;;5069721;28;20865;-62
2020/12/04 11:57:56;;;;;;;1.70;1.70;;;5.30;98.00;;;;;;5074451;28;20494;-62
2020/12/04 12:00:24;;;;;;;1.67;1.20;;;5.20;98.00;;;;;;5073175;28;20451;-62
2020/12/04 12:02:50;;;;;;;1.20;1.00;;;5.10;98.00;;;;;;5074116;28;20449;-63
2020/12/04 12:05:17;;;;;;;1.73;1.63;;;5.10;98.00;;;;;;5073115;28;20457;-63
2020/12/04 12:07:43;;;;;;;1.20;1.13;;;5.10;98.00;;;;;;5074158;28;20449;-62
2020/12/04 12:10:10;;;;;;;1.87;1.63;;;5.20;98.00;;;;;;5073008;28;21006;-63
2020/12/04 12:12:37;;;;;;;2.20;1.40;;;5.30;98.00;;;;;;5073791;28;20457;-63
2020/12/04 12:15:04;;;;;;;2.07;1.33;;;5.20;98.00;;;;;;5072780;28;20449;-63
2020/12/04 12:17:32;;;;;;;2.03;1.37;;;5.10;98.00;;;;;;5074001;28;20449;-63
2020/12/04 12:19:59;;;;;;;1.60;1.10;;;5.10;98.00;;;;;;5074288;28;20499;-62
2020/12/04 12:22:25;;;;;;;1.40;1.10;;;5.10;98.00;;;;;;5072161;28;20531;-62
2020/12/04 12:24:53;;;;;;;1.50;1.40;;;5.10;98.00;;;;;;5073913;28;20462;-63
2020/12/04 12:27:20;;;;;;;1.77;1.67;;;5.10;98.00;;;;;;5072643;28;20458;-63
2020/12/04 12:29:50;;;;;;;1.47;1.40;;;5.20;98.00;;;;;;5074016;28;21086;-62
2020/12/04 12:32:16;;;;;;;2.77;2.57;;;5.30;98.00;;;;;;5072494;28;20454;-62
2020/12/04 12:35:02;;;;;;;3.10;2.60;;;5.40;98.00;;;;;;5072044;28;20849;-64
2020/12/04 12:37:31;;;;;;;5.33;2.47;;;5.50;98.00;;;;;;5072183;28;20450;-62
2020/12/04 12:39:57;;;;;;;1.20;1.00;;;5.40;98.00;;;;;;5074412;28;20450;-63
2020/12/04 12:42:25;;;;;;;1.30;1.20;;;5.30;98.00;;;;;;5072102;28;20483;-63
2020/12/04 12:44:51;;;;;;;1.50;1.40;;;5.20;98.00;;;;;;5074102;28;21001;-62
2020/12/04 12:47:18;;;;;;;2.80;1.77;;;5.20;98.00;;;;;;5072032;28;20947;-63
2020/12/04 12:49:46;;;;;;;1.20;1.00;;;5.10;98.00;;;;;;5073807;28;21040;-62
2020/12/04 12:52:13;;;;;;;1.60;1.20;;;5.10;98.00;;;;;;5070693;28;20461;-64
2020/12/04 12:54:41;;;;;;;1.30;1.13;;;5.10;98.00;;;;;;5073811;28;20483;-64
2020/12/04 12:57:07;;;;;;;4.83;1.97;;;5.10;98.00;;;;;;5071777;28;20480;-63
2020/12/04 12:59:34;;;;;;;1.63;1.20;;;5.10;98.00;;;;;;5073909;28;21140;-62
2020/12/04 13:02:00;;;;;;;1.20;1.10;;;5.20;98.00;;;;;;5072329;28;20468;-62
2020/12/04 13:04:28;;;;;;;1.20;1.00;;;5.30;98.00;;;;;;5072440;28;20927;-63